A- A+
   

最近的 特别机场 旧机场 OAKN KandaharLEAM AlmeriaLFBT Tarbes-Lourdes-PyrénéesLFBE Bergerac-RoumaniereLFPO Paris-Orly WMKK Kuala Lumpar

飞行员的航空天气,使用METAR(气象机场报告)进行的飞行准备和TAF(终端机场预报:针对以下情况的短期天气预报)航空)。 以及其他资源,例如VAC(目视进近图)和NOTAM(通知飞行员)以进行预试飞行.

METAR, TAF, VAC, NOTAM Baxley Mun机场 (美国) / OACI KBHC

Baxley Mun 它位于附近 Baxley, Baxley 在 8 km, Alma 在 20 km, Hazlehurst 在 26 km, Nicholls 在 32 km, Lumber City 在 36 km, Blackshear 在 48 km, Broxton 在 48 km, Douglas 在 49 km, Reidsville 在 49 km, Jesup 在 50 km,

METAR Baxley Mun机场的 - KBHC

KBHC 152315Z AUTO 02003KT 10SM CLR 24/12 A3021 RMK AO2

Baxley Mun机场METAR解码 (美国)

KBHC机场发行的METAR日期2020年03月16日至23:15 GMT. 这是一个自动生成的METAR, 警告:此METAR已过期, 已于 401 天 7 小时 44 分钟.

可见度为 16 km = 10 sm.

温度为24 °C = 75 °F 露点为12 °C = 54 °F 。 这相当于47%的相对湿度。.

QNH是1023 mb = 30.21 inHg

的风 6 km/h = 3 kt, 风向为 20°.

天空晴朗

备注 带有降水传感器的自动站

TAF Baxley Mun机场的 - KBHC

没有TAF,但可以使用航空天气 Moody AFB机场的 (KVAD) 在 112 km

Baxley Mun机场的NOTAM

提供的NOTAM不能保证其时事性。 在将其用于飞行准备或在飞行期间使用之前,飞行员是唯一负责验证其有效性的人员。

国际民航组织没有提供通知

最近的机场 Baxley Mun

数据源